Главная страница
METAR-TAF:

METAR-TAF

Аэропорты :

Актау, Казахстан

широта: 43-52-12N, долгота: 051-06E, высота над уровнем моря: 22 м

Текущие метеонаблюдения

Эта сводка был подготовлена 22 минут назад, в 19:30 UTC
Ветер 12 Узел от восточный
Температура 6°C
Влажность 70%
Давление 1018 hPa
Видимость 10 км и более
Нет облачности ниже 1500 м, и нет кучево-дождевой облачности

METAR: UATE 191930Z 10006MPS CAVOK 06/01 Q1018 R12/0///70 NOSIG RMK QFE762/1016

Время: 00:52 (19:52 UTC)

Прогноз

Эта сводка был подготовлена 2 часа и 48 минут назад, в 17:04 UTC
Прогноз действительный с 19-го 18 UTC до 20-го 18 UTC
Ветер 12 Узел от восточно-юго-восточный с порывами до 23 Узел
Видимость 10 км и более

TAF: UATE 191704Z 1918/2018 12006G12MPS 9999 NSC TX14/2009Z TN04/2002Z

Метеонаблюдения и прогнозы для более 4000 аэропортов (сводки METAR и TAF).

Имеющиеся станции представлены на карте желтыми и красными точками.

Чтобы увидеть название станции, наведите на нее мышь.

Затем щелкните, чтобы увидеть метеонаблюдения и метеопрогнозы.

Управление картой: чтобы увеличить масштаб, щелкните зеленые кнопки с черным крестиком; чтобы уменьшить масштаб, щелкните зеленую кнопку с тире; для просмотра соседних карт щелкайте зеленые стрелки.


METAR-TAF: